Time;durP1;ratioP1;P1;durP2;ratioP2;P2;SDS_P1;SDS_P2;PMS_P1;PMS_P2;Temp;Humidity;BMP_temperature;BMP_pressure;BME280_temperature;BME280_humidity;BME280_pressure;Samples;Min_cycle;Max_cycle;Signal;HPM_P1;HPM_P2
2022/12/04 00:01:05;;;;;;;;;;;;;;;-147.11;100.00;61570.13;5096669;28;19924;-51
2022/12/04 00:03:30;;;;;;;;;;;;;;;-147.11;100.00;61570.13;5098462;28;19922;-51
2022/12/04 00:06:06;;;;;;;;;;;;;;;-147.11;100.00;61570.13;5081370;28;19920;-51
2022/12/04 00:08:31;;;;;;;;;;;;;;;-147.11;100.00;61570.13;5107865;28;19923;-52
2022/12/04 00:10:57;;;;;;;;;;;;;;;-147.11;100.00;61570.13;5110235;28;19916;-51
2022/12/04 00:13:22;;;;;;;;;;;;;;;-147.11;100.00;61570.13;5101100;28;19920;-51
2022/12/04 00:15:47;;;;;;;;;;;;;;;-147.11;100.00;61570.13;5108534;28;20297;-51
2022/12/04 00:18:13;;;;;;;;;;;;;;;-147.11;100.00;61570.13;5107709;28;20305;-52
2022/12/04 00:20:39;;;;;;;;;;;;;;;-147.11;100.00;61570.13;5100759;28;19926;-51
2022/12/04 00:23:04;;;;;;;;;;;;;;;-147.11;100.00;61570.13;5085735;28;19916;-51
2022/12/04 00:25:30;;;;;;;;;;;;;;;-147.11;100.00;61570.13;5099232;28;20008;-52
2022/12/04 00:27:55;;;;;;;;;;;;;;;-147.11;100.00;61570.13;5100562;28;19920;-52
2022/12/04 00:30:20;;;;;;;;;;;;;;;-147.11;100.00;61570.13;5104630;28;20363;-51
2022/12/04 00:32:46;;;;;;;;;;;;;;;-147.11;100.00;61570.13;5102798;28;20431;-51
2022/12/04 00:35:11;;;;;;;;;;;;;;;-147.11;100.00;61570.13;5111208;28;20014;-51
2022/12/04 00:37:37;;;;;;;;;;;;;;;-147.11;100.00;61570.13;5107677;28;19926;-51
2022/12/04 00:40:02;;;;;;;;;;;;;;;-147.11;100.00;61570.13;5099806;28;19920;-51
2022/12/04 00:42:28;;;;;;;;;;;;;;;-147.11;100.00;61570.13;5108215;28;19919;-51
2022/12/04 00:44:53;;;;;;;;;;;;;;;-147.11;100.00;61570.13;5107252;28;19926;-51
2022/12/04 00:47:18;;;;;;;;;;;;;;;-147.11;100.00;61570.13;5109515;28;19920;-51
2022/12/04 00:49:43;;;;;;;;;;;;;;;-147.11;100.00;61570.13;5113194;27;19965;-51
2022/12/04 00:52:09;;;;;;;;;;;;;;;-147.11;100.00;61570.13;5116083;27;19912;-51
2022/12/04 00:54:34;;;;;;;;;;;;;;;-147.11;100.00;61570.13;5110274;28;19968;-51
2022/12/04 00:56:59;;;;;;;;;;;;;;;-147.11;100.00;61570.13;5108209;28;19972;-51
2022/12/04 00:59:25;;;;;;;;;;;;;;;-147.11;100.00;61570.13;5111826;27;19920;-51
2022/12/04 01:01:50;;;;;;;;;;;;;;;-147.11;100.00;61570.13;5104986;27;19921;-53
2022/12/04 01:04:15;;;;;;;;;;;;;;;-147.11;100.00;61570.13;5104817;27;19927;-52
2022/12/04 01:06:41;;;;;;;;;;;;;;;-147.11;100.00;61570.13;5088409;28;19926;-52
2022/12/04 01:09:06;;;;;;;;;;;;;;;-147.11;100.00;61570.13;5111978;27;19951;-51
2022/12/04 01:11:32;;;;;;;;;;;;;;;-147.11;100.00;61570.13;5101087;28;20011;-51
2022/12/04 01:13:57;;;;;;;;;;;;;;;-147.11;100.00;61570.13;5112493;27;19923;-53
2022/12/04 01:16:25;;;;;;;;;;;;;;;-147.11;100.00;61570.13;5110545;27;19919;-51
2022/12/04 01:18:50;;;;;;;;;;;;;;;-147.11;100.00;61570.13;5107683;28;19916;-51
2022/12/04 01:21:16;;;;;;;;;;;;;;;-147.11;100.00;61570.13;5095784;28;19924;-51
2022/12/04 01:23:43;;;;;;;;;;;;;;;-147.11;100.00;61570.13;5108048;28;19943;-51
2022/12/04 01:26:08;;;;;;;;;;;;;;;-147.11;100.00;61570.13;5101425;27;19993;-51
2022/12/04 01:28:33;;;;;;;;;;;;;;;-147.11;100.00;61570.13;5111688;27;19945;-51
2022/12/04 01:31:00;;;;;;;;;;;;;;;-147.11;100.00;61570.13;5108633;27;19920;-51
2022/12/04 01:33:25;;;;;;;;;;;;;;;-147.11;100.00;61570.13;5113305;27;19922;-51
2022/12/04 01:35:52;;;;;;;;;;;;;;;-147.11;100.00;61570.13;5112518;27;19919;-52
2022/12/04 01:38:17;;;;;;;;;;;;;;;-147.11;100.00;61570.13;5108533;27;20828;-52
2022/12/04 01:40:43;;;;;;;;;;;;;;;-147.11;100.00;61570.13;5105187;27;20387;-52
2022/12/04 01:43:08;;;;;;;;;;;;;;;-147.11;100.00;61570.13;5108118;27;20002;-52
2022/12/04 01:45:38;;;;;;;;;;;;;;;-147.11;100.00;61570.13;5104881;27;19920;-51
2022/12/04 01:48:08;;;;;;;;;;;;;;;-147.11;100.00;61570.13;5104384;27;19952;-52
2022/12/04 01:50:33;;;;;;;;;;;;;;;-147.11;100.00;61570.13;5107801;27;19959;-51
2022/12/04 01:52:59;;;;;;;;;;;;;;;-147.11;100.00;61570.13;5100504;27;19945;-51
2022/12/04 01:55:24;;;;;;;;;;;;;;;-147.11;100.00;61570.13;5109639;28;20298;-51
2022/12/04 01:57:49;;;;;;;;;;;;;;;-147.11;100.00;61570.13;5106917;28;19942;-52
2022/12/04 02:00:15;;;;;;;;;;;;;;;-147.11;100.00;61570.13;5112231;27;20286;-52
2022/12/04 02:02:42;;;;;;;;;;;;;;;-147.11;100.00;61570.13;5105917;27;20371;-52
2022/12/04 02:05:09;;;;;;;;;;;;;;;-147.11;100.00;61570.13;5102472;28;20287;-52
2022/12/04 02:07:34;;;;;;;;;;;;;;;-147.11;100.00;61570.13;5107176;27;19924;-51
2022/12/04 02:10:05;;;;;;;;;;;;;;;-147.11;100.00;61570.13;5098648;28;19916;-51
2022/12/04 02:12:49;;;;;;;;;;;;;;;-147.11;100.00;61570.13;5103494;27;19923;-51
2022/12/04 02:15:20;;;;;;;;;;;;;;;-147.11;100.00;61570.13;5108154;27;19919;-51
2022/12/04 02:17:55;;;;;;;;;;;;;;;-147.11;100.00;61570.13;5110327;27;20002;-52
2022/12/04 02:20:29;;;;;;;;;;;;;;;-147.11;100.00;61570.13;5102590;28;19955;-51
2022/12/04 02:22:55;;;;;;;;;;;;;;;-147.11;100.00;61570.13;5099596;27;19924;-51
2022/12/04 02:25:28;;;;;;;;;;;;;;;-147.11;100.00;61570.13;5102193;28;19915;-52
2022/12/04 02:27:59;;;;;;;;;;;;;;;-147.11;100.00;61570.13;5104716;27;19947;-51
2022/12/04 02:30:26;;;;;;;;;;;;;;;-147.11;100.00;61570.13;5101535;28;19923;-51
2022/12/04 02:32:54;;;;;;;;;;;;;;;-147.11;100.00;61570.13;5097735;28;19948;-52
2022/12/04 02:35:32;;;;;;;;;;;;;;;-147.11;100.00;61570.13;5095199;28;19926;-51
2022/12/04 02:38:13;;;;;;;;;;;;;;;-147.11;100.00;61570.13;5106957;27;19916;-51
2022/12/04 02:40:49;;;;;;;;;;;;;;;-147.11;100.00;61570.13;5097543;28;20672;-51
2022/12/04 02:43:17;;;;;;;;;;;;;;;-147.11;100.00;61570.13;5099145;28;19926;-52
2022/12/04 02:45:50;;;;;;;;;;;;;;;-147.11;100.00;61570.13;5103866;28;19961;-51
2022/12/04 02:48:17;;;;;;;;;;;;;;;-147.11;100.00;61570.13;5107632;28;20052;-51
2022/12/04 02:50:45;;;;;;;;;;;;;;;-147.11;100.00;61570.13;5089112;28;19920;-52
2022/12/04 02:53:19;;;;;;;;;;;;;;;-147.11;100.00;61570.13;5095530;28;19920;-51
2022/12/04 02:55:54;;;;;;;;;;;;;;;-147.11;100.00;61570.13;5095256;27;19916;-52
2022/12/04 02:58:31;;;;;;;;;;;;;;;-147.11;100.00;61570.13;5087792;27;20370;-52
2022/12/04 03:00:58;;;;;;;;;;;;;;;-147.11;100.00;61570.13;5101741;27;19966;-52
2022/12/04 03:03:25;;;;;;;;;;;;;;;-147.11;100.00;61570.13;5093072;28;19981;-51
2022/12/04 03:05:57;;;;;;;;;;;;;;;-147.11;100.00;61570.13;5101765;27;19919;-51
2022/12/04 03:08:25;;;;;;;;;;;;;;;-147.11;100.00;61570.13;5104093;27;19934;-51
2022/12/04 03:10:54;;;;;;;;;;;;;;;-147.11;100.00;61570.13;5106950;27;19922;-52
2022/12/04 03:13:25;;;;;;;;;;;;;;;-147.11;100.00;61570.13;5106302;27;19931;-52
2022/12/04 03:16:00;;;;;;;;;;;;;;;-147.11;100.00;61570.13;5103110;28;19937;-51
2022/12/04 03:18:27;;;;;;;;;;;;;;;-147.11;100.00;61570.13;5102874;28;19916;-51
2022/12/04 03:20:55;;;;;;;;;;;;;;;-147.11;100.00;61570.13;5102318;28;20417;-51
2022/12/04 03:23:34;;;;;;;;;;;;;;;-147.11;100.00;61570.13;5106726;27;19924;-52
2022/12/04 03:26:07;;;;;;;;;;;;;;;-147.11;100.00;61570.13;5101352;27;19955;-51
2022/12/04 03:28:45;;;;;;;;;;;;;;;-147.11;100.00;61570.13;5109585;27;19968;-51
2022/12/04 03:31:11;;;;;;;;;;;;;;;-147.11;100.00;61570.13;5099665;28;19919;-51
2022/12/04 03:33:46;;;;;;;;;;;;;;;-147.11;100.00;61570.13;5109521;28;19947;-51
2022/12/04 03:36:21;;;;;;;;;;;;;;;-147.11;100.00;61570.13;5107826;27;19916;-52
2022/12/04 03:38:49;;;;;;;;;;;;;;;-147.11;100.00;61570.13;5109224;28;19927;-52
2022/12/04 03:41:22;;;;;;;;;;;;;;;-147.11;100.00;61570.13;5104769;28;20003;-51
2022/12/04 03:44:10;;;;;;;;;;;;;;;-147.11;100.00;61570.13;5105720;28;19919;-51
2022/12/04 03:46:40;;;;;;;;;;;;;;;-147.11;100.00;61570.13;5085309;28;19911;-51
2022/12/04 03:49:34;;;;;;;;;;;;;;;-147.11;100.00;61570.13;5103531;28;19920;-52
2022/12/04 03:52:09;;;;;;;;;;;;;;;-147.11;100.00;61570.13;5026858;28;19924;-52
2022/12/04 03:54:37;;;;;;;;;;;;;;;-147.11;100.00;61570.13;5100662;28;20423;-52
2022/12/04 03:57:09;;;;;;;;;;;;;;;-147.11;100.00;61570.13;5103128;28;19920;-51
2022/12/04 03:59:44;;;;;;;;;;;;;;;-147.11;100.00;61570.13;5103918;28;19911;-51
2022/12/04 04:02:12;;;;;;;;;;;;;;;-147.11;100.00;61570.13;5086962;28;20598;-51
2022/12/04 04:04:39;;;;;;;;;;;;;;;-147.11;100.00;61570.13;5098039;28;20709;-51
2022/12/04 04:07:13;;;;;;;;;;;;;;;-147.11;100.00;61570.13;5107621;28;19920;-51
2022/12/04 04:09:40;;;;;;;;;;;;;;;-147.11;100.00;61570.13;5102882;28;19924;-52
2022/12/04 04:12:09;;;;;;;;;;;;;;;-147.11;100.00;61570.13;5108288;28;19920;-51
2022/12/04 04:25:45;;;;;;;;;;;;;;;-147.11;100.00;61570.13;5111364;27;19923;-52
2022/12/04 04:28:31;;;;;;;;;;;;;;;-147.11;100.00;61570.13;5115921;27;19916;-52
2022/12/04 04:31:04;;;;;;;;;;;;;;;-147.11;100.00;61570.13;5108054;27;19976;-51
2022/12/04 04:33:31;;;;;;;;;;;;;;;-147.11;100.00;61570.13;5109319;27;19923;-51
2022/12/04 04:36:02;;;;;;;;;;;;;;;-147.11;100.00;61570.13;5110232;27;19935;-51
2022/12/04 04:38:36;;;;;;;;;;;;;;;-147.11;100.00;61570.13;5116940;27;19920;-52
2022/12/04 04:41:09;;;;;;;;;;;;;;;-147.11;100.00;61570.13;5107930;27;20006;-52
2022/12/04 04:43:38;;;;;;;;;;;;;;;-147.11;100.00;61570.13;5116114;27;19926;-51
2022/12/04 04:46:07;;;;;;;;;;;;;;;-147.11;100.00;61570.13;5108347;27;19923;-52
2022/12/04 04:48:38;;;;;;;;;;;;;;;-147.11;100.00;61570.13;5111837;28;19916;-52
2022/12/04 04:51:04;;;;;;;;;;;;;;;-147.11;100.00;61570.13;5097600;28;20387;-51
2022/12/04 04:53:34;;;;;;;;;;;;;;;-147.11;100.00;61570.13;5113223;27;19920;-51
2022/12/04 04:55:59;;;;;;;;;;;;;;;-147.11;100.00;61570.13;5101790;28;20306;-51
2022/12/04 04:58:25;;;;;;;;;;;;;;;-147.11;100.00;61570.13;5111162;28;19916;-52
2022/12/04 05:00:57;;;;;;;;;;;;;;;-147.11;100.00;61570.13;5087305;28;19924;-51
2022/12/04 05:03:23;;;;;;;;;;;;;;;-147.11;100.00;61570.13;5119361;27;19925;-51
2022/12/04 05:05:49;;;;;;;;;;;;;;;-147.11;100.00;61570.13;5113503;27;20275;-51
2022/12/04 05:08:14;;;;;;;;;;;;;;;-147.11;100.00;61570.13;5109762;27;20007;-52
2022/12/04 05:10:39;;;;;;;;;;;;;;;-147.11;100.00;61570.13;5105302;28;20533;-51
2022/12/04 05:13:04;;;;;;;;;;;;;;;-147.11;100.00;61570.13;5103951;27;19939;-51
2022/12/04 05:15:30;;;;;;;;;;;;;;;-147.11;100.00;61570.13;5106187;27;19965;-52
2022/12/04 05:17:55;;;;;;;;;;;;;;;-147.11;100.00;61570.13;5120223;27;19916;-51
2022/12/04 05:20:20;;;;;;;;;;;;;;;-147.11;100.00;61570.13;5110850;27;19920;-51
2022/12/04 05:22:46;;;;;;;;;;;;;;;-147.11;100.00;61570.13;5103633;28;20366;-53
2022/12/04 05:25:11;;;;;;;;;;;;;;;-147.11;100.00;61570.13;5109297;27;19924;-51
2022/12/04 05:27:36;;;;;;;;;;;;;;;-147.11;100.00;61570.13;5108923;27;20398;-51
2022/12/04 05:30:02;;;;;;;;;;;;;;;-147.11;100.00;61570.13;5103180;27;19923;-51
2022/12/04 05:32:28;;;;;;;;;;;;;;;-147.11;100.00;61570.13;5108012;28;20377;-52
2022/12/04 05:34:54;;;;;;;;;;;;;;;-147.11;100.00;61570.13;5112374;27;19912;-53
2022/12/04 05:37:19;;;;;;;;;;;;;;;-147.11;100.00;61570.13;5111912;27;20007;-51
2022/12/04 05:39:45;;;;;;;;;;;;;;;-147.11;100.00;61570.13;5109139;27;20014;-52
2022/12/04 05:42:11;;;;;;;;;;;;;;;-147.11;100.00;61570.13;5107610;27;19943;-51
2022/12/04 05:44:36;;;;;;;;;;;;;;;-147.11;100.00;61570.13;5110985;27;19915;-51
2022/12/04 05:47:01;;;;;;;;;;;;;;;-147.11;100.00;61570.13;5109490;27;19924;-51
2022/12/04 05:49:33;;;;;;;;;;;;;;;-147.11;100.00;61570.13;5096084;28;19919;-51
2022/12/04 05:51:59;;;;;;;;;;;;;;;-147.11;100.00;61570.13;5108936;27;19963;-51
2022/12/04 05:54:24;;;;;;;;;;;;;;;-147.11;100.00;61570.13;5104638;28;20010;-52
2022/12/04 05:56:50;;;;;;;;;;;;;;;-147.11;100.00;61570.13;5108309;28;19916;-51
2022/12/04 05:59:15;;;;;;;;;;;;;;;-147.11;100.00;61570.13;5098390;27;19924;-51
2022/12/04 06:01:41;;;;;;;;;;;;;;;-147.11;100.00;61570.13;5111094;27;19919;-51
2022/12/04 06:04:07;;;;;;;;;;;;;;;-147.11;100.00;61570.13;5107807;28;19923;-51
2022/12/04 06:06:32;;;;;;;;;;;;;;;-147.11;100.00;61570.13;5107624;27;19924;-51
2022/12/04 06:08:58;;;;;;;;;;;;;;;-147.11;100.00;61570.13;5105717;27;20309;-51
2022/12/04 06:11:25;;;;;;;;;;;;;;;-147.11;100.00;61570.13;5107343;27;19920;-51
2022/12/04 06:13:51;;;;;;;;;;;;;;;-147.11;100.00;61570.13;5110743;27;19916;-52
2022/12/04 06:16:20;;;;;;;;;;;;;;;-147.11;100.00;61570.13;5108207;28;19927;-51
2022/12/04 06:18:50;;;;;;;;;;;;;;;-147.11;100.00;61570.13;5105018;28;19985;-52
2022/12/04 06:21:16;;;;;;;;;;;;;;;-147.11;100.00;61570.13;5109858;28;19919;-51
2022/12/04 06:23:41;;;;;;;;;;;;;;;-147.11;100.00;61570.13;5107685;27;19923;-51
2022/12/04 06:26:07;;;;;;;;;;;;;;;-147.11;100.00;61570.13;5104768;27;20011;-52
2022/12/04 06:28:33;;;;;;;;;;;;;;;-147.11;100.00;61570.13;5118672;27;20302;-51
2022/12/04 06:31:06;;;;;;;;;;;;;;;-147.11;100.00;61570.13;5098927;27;20010;-51
2022/12/04 06:33:32;;;;;;;;;;;;;;;-147.11;100.00;61570.13;5100909;27;19919;-51
2022/12/04 06:36:01;;;;;;;;;;;;;;;-147.11;100.00;61570.13;5108890;27;20249;-52
2022/12/04 06:38:26;;;;;;;;;;;;;;;-147.11;100.00;61570.13;5094574;28;19924;-51
2022/12/04 06:40:52;;;;;;;;;;;;;;;-147.11;100.00;61570.13;5106468;27;19938;-51
2022/12/04 06:43:17;;;;;;;;;;;;;;;-147.11;100.00;61570.13;5112303;27;19919;-51
2022/12/04 06:45:42;;;;;;;;;;;;;;;-147.11;100.00;61570.13;5106990;27;19923;-51
2022/12/04 06:48:07;;;;;;;;;;;;;;;-147.11;100.00;61570.13;5109472;27;19954;-51
2022/12/04 06:50:33;;;;;;;;;;;;;;;-147.11;100.00;61570.13;5110741;28;20536;-51
2022/12/04 06:52:58;;;;;;;;;;;;;;;-147.11;100.00;61570.13;5085458;28;19920;-51
2022/12/04 06:55:24;;;;;;;;;;;;;;;-147.11;100.00;61570.13;5110296;28;19976;-52
2022/12/04 06:57:49;;;;;;;;;;;;;;;-147.11;100.00;61570.13;5114364;27;19959;-52
2022/12/04 07:00:15;;;;;;;;;;;;;;;-147.11;100.00;61570.13;5112530;27;19961;-53
2022/12/04 07:02:40;;;;;;;;;;;;;;;-147.11;100.00;61570.13;5109155;27;19919;-52
2022/12/04 07:05:06;;;;;;;;;;;;;;;-147.11;100.00;61570.13;5091148;28;20350;-52
2022/12/04 07:07:31;;;;;;;;;;;;;;;-147.11;100.00;61570.13;5108049;27;20589;-52
2022/12/04 07:09:56;;;;;;;;;;;;;;;-147.11;100.00;61570.13;5107218;28;19939;-52
2022/12/04 07:12:22;;;;;;;;;;;;;;;-147.11;100.00;61570.13;5106781;28;19920;-52
2022/12/04 07:14:47;;;;;;;;;;;;;;;-147.11;100.00;61570.13;5106260;27;20450;-51
2022/12/04 07:17:12;;;;;;;;;;;;;;;-147.11;100.00;61570.13;5109423;27;20336;-51
2022/12/04 07:19:37;;;;;;;;;;;;;;;2.02;76.31;102022.13;5116049;27;20010;-51
2022/12/04 07:22:03;;;;;;;;;;;;;;;2.02;76.35;102027.31;5108977;27;19919;-51
2022/12/04 07:24:28;;;;;;;;;;;;;;;2.01;76.58;102027.28;5108478;28;19923;-51
2022/12/04 07:26:54;;;;;;;;;;;;;;;2.02;76.17;102032.50;5106667;27;20008;-51
2022/12/04 07:29:19;;;;;;;;;;;;;;;2.01;76.39;102035.97;5106990;27;19924;-51
2022/12/04 07:31:44;;;;;;;;;;;;;;;2.04;76.58;102033.34;5105909;27;19963;-51
2022/12/04 07:34:10;;;;;;;;;;;;;;;2.05;76.42;102037.66;5108770;27;19915;-51
2022/12/04 07:36:35;;;;;;;;;;;;;;;2.06;76.45;102039.38;5100885;28;19967;-52
2022/12/04 07:39:00;;;;;;;;;;;;;;;2.10;76.39;102035.94;5098151;27;19928;-52
2022/12/04 07:41:26;;;;;;;;;;;;;;;2.05;76.83;102037.66;5102012;28;19947;-52
2022/12/04 07:43:52;;;;;;;;;;;;;;;2.07;76.51;102028.13;5105150;28;20428;-52
2022/12/04 07:46:19;;;;;;;;;;;;;;;2.10;76.38;102043.72;5100647;28;19926;-52
2022/12/04 07:48:44;;;;;;;;;;;;;;;2.11;76.51;102042.00;5092952;28;19919;-53
2022/12/04 07:51:14;;;;;;;;;;;;;;;2.12;76.43;102044.59;5102812;28;19930;-52
2022/12/04 07:53:39;;;;;;;;;;;;;;;2.13;76.66;102037.66;5105619;28;19919;-52
2022/12/04 07:56:05;;;;;;;;;;;;;;;2.11;76.71;102042.00;5107000;27;20291;-52
2022/12/04 07:58:30;;;;;;;;;;;;;;;2.09;76.62;102042.00;5088587;28;19920;-51
2022/12/04 08:01:03;;;;;;;;;;;;;;;2.11;76.53;102042.00;5105378;27;19920;-52
2022/12/04 08:03:29;;;;;;;;;;;;;;;2.13;76.41;102046.31;5096163;28;19924;-52
2022/12/04 08:05:58;;;;;;;;;;;;;;;2.17;76.62;102041.97;5089651;28;19928;-52
2022/12/04 08:08:23;;;;;;;;;;;;;;;2.18;76.51;102046.31;5104632;27;19924;-52
2022/12/04 08:10:48;;;;;;;;;;;;;;;2.19;76.36;102049.78;5101954;28;19923;-52
2022/12/04 08:13:13;;;;;;;;;;;;;;;2.21;76.40;102055.81;5105393;28;20022;-52
2022/12/04 08:15:39;;;;;;;;;;;;;;;2.22;76.49;102055.84;5108037;28;19931;-52
2022/12/04 08:18:04;;;;;;;;;;;;;;;2.19;76.56;102052.38;5111124;27;20382;-52
2022/12/04 08:20:30;;;;;;;;;;;;;;;2.20;76.68;102052.38;5104394;27;19927;-52
2022/12/04 08:22:55;;;;;;;;;;;;;;;2.13;76.82;102054.13;5101776;28;19950;-52
2022/12/04 08:25:20;;;;;;;;;;;;;;;2.14;76.81;102052.38;5095987;28;21060;-52
2022/12/04 08:27:46;;;;;;;;;;;;;;;2.16;77.16;102058.44;5104753;27;19920;-52
2022/12/04 08:30:12;;;;;;;;;;;;;;;2.20;76.85;102051.50;5118182;27;20336;-51
2022/12/04 08:32:37;;;;;;;;;;;;;;;2.25;76.43;102047.16;5102759;28;19923;-51
2022/12/04 08:35:03;;;;;;;;;;;;;;;2.23;76.75;102047.19;5114587;27;19919;-52
2022/12/04 08:37:28;;;;;;;;;;;;;;;2.18;76.87;102045.47;5112193;27;19928;-51
2022/12/04 08:39:53;;;;;;;;;;;;;;;2.19;76.90;102042.84;5111113;27;19919;-51
2022/12/04 08:42:19;;;;;;;;;;;;;;;2.23;76.76;102046.28;5111330;27;19923;-51
2022/12/04 08:44:44;;;;;;;;;;;;;;;2.26;76.94;102051.50;5087045;27;19920;-51
2022/12/04 08:47:09;;;;;;;;;;;;;;;2.25;77.06;102044.56;5114773;27;19949;-51
2022/12/04 08:49:35;;;;;;;;;;;;;;;2.23;76.96;102052.38;5111068;27;19919;-51
2022/12/04 08:52:00;;;;;;;;;;;;;;;2.25;76.91;102049.75;5093573;28;19933;-51
2022/12/04 08:54:25;;;;;;;;;;;;;;;2.26;76.85;102052.38;5110811;27;19920;-52
2022/12/04 08:56:51;;;;;;;;;;;;;;;2.27;76.80;102053.22;5107650;27;20382;-51
2022/12/04 08:59:16;;;;;;;;;;;;;;;2.33;76.67;102058.41;5114739;28;20057;-51
2022/12/04 09:01:41;;;;;;;;;;;;;;;2.33;76.71;102068.81;5113488;28;19915;-51
2022/12/04 09:04:07;;;;;;;;;;;;;;;2.32;76.78;102064.47;5110335;28;19976;-51
2022/12/04 09:06:32;;;;;;;;;;;;;;;2.37;76.71;102065.31;5111582;27;20006;-51
2022/12/04 09:08:57;;;;;;;;;;;;;;;2.37;76.79;102062.72;5101275;28;19924;-51
2022/12/04 09:11:24;;;;;;;;;;;;;;;2.40;76.59;102070.50;5118507;27;20330;-51
2022/12/04 09:13:50;;;;;;;;;;;;;;;2.40;76.76;102069.66;5112747;28;19927;-51
2022/12/04 09:16:17;;;;;;;;;;;;;;;2.44;76.65;102064.44;5110460;28;19924;-51
2022/12/04 09:18:43;;;;;;;;;;;;;;;2.44;76.68;102061.84;5111699;28;19912;-52
2022/12/04 09:21:09;;;;;;;;;;;;;;;2.48;76.37;102067.88;5109896;27;19976;-51
2022/12/04 09:23:35;;;;;;;;;;;;;;;2.52;76.55;102055.75;5109328;28;19916;-53
2022/12/04 09:26:01;;;;;;;;;;;;;;;2.53;76.60;102053.16;5094280;28;19927;-51
2022/12/04 09:28:27;;;;;;;;;;;;;;;2.52;76.34;102043.63;5105285;27;19912;-51
2022/12/04 09:31:10;;;;;;;;;;;;;;;2.49;76.69;102046.25;5101648;27;19952;-53
2022/12/04 09:33:36;;;;;;;;;;;;;;;2.53;76.50;102045.38;5119343;27;19911;-52
2022/12/04 09:36:02;;;;;;;;;;;;;;;2.52;76.66;102040.16;5111887;27;20397;-52
2022/12/04 09:38:27;;;;;;;;;;;;;;;2.53;76.64;102039.28;5124696;27;19915;-52
2022/12/04 09:40:53;;;;;;;;;;;;;;;2.54;76.58;102046.22;5112506;28;19938;-52
2022/12/04 09:43:27;;;;;;;;;;;;;;;2.57;76.48;102046.22;5118227;27;19935;-51
2022/12/04 09:45:54;;;;;;;;;;;;;;;2.60;76.42;102046.22;5107048;27;19995;-51
2022/12/04 09:48:21;;;;;;;;;;;;;;;2.52;76.70;102042.75;5112800;28;19911;-53
2022/12/04 09:50:48;;;;;;;;;;;;;;;2.55;76.57;102042.75;5102063;28;19921;-51
2022/12/04 09:53:28;;;;;;;;;;;;;;;2.55;76.57;102037.56;5111906;27;19920;-52
2022/12/04 09:55:57;;;;;;;;;;;;;;;2.54;76.67;102036.69;5102420;28;20357;-51
2022/12/04 09:58:27;;;;;;;;;;;;;;;2.57;76.57;102031.47;5113288;27;19915;-51
2022/12/04 10:00:53;;;;;;;;;;;;;;;2.55;76.73;102024.56;5118234;27;19912;-51
2022/12/04 10:03:19;;;;;;;;;;;;;;;2.54;76.74;102030.63;5118373;27;20298;-51
2022/12/04 10:06:06;;;;;;;;;;;;;;;2.50;77.06;102032.38;5104771;28;19923;-51
2022/12/04 10:08:36;;;;;;;;;;;;;;;2.53;77.00;102031.50;5103592;28;19924;-51
2022/12/04 10:11:11;;;;;;;;;;;;;;;2.57;76.68;102034.06;5106388;28;19920;-51
2022/12/04 10:13:39;;;;;;;;;;;;;;;2.57;76.75;102023.66;5108405;27;20321;-51
2022/12/04 10:16:04;;;;;;;;;;;;;;;2.56;77.08;102015.91;5104389;27;19920;-51
2022/12/04 10:18:41;;;;;;;;;;;;;;;2.56;76.83;102013.28;5111906;28;19977;-51
2022/12/04 10:21:19;;;;;;;;;;;;;;;2.56;77.02;102011.59;5107091;27;19977;-52
2022/12/04 10:24:02;;;;;;;;;;;;;;;2.57;77.12;102013.28;5111434;28;19912;-52
2022/12/04 10:26:32;;;;;;;;;;;;;;;2.55;77.15;102011.56;5112323;28;19916;-51
2022/12/04 10:29:00;;;;;;;;;;;;;;;2.58;77.10;102004.63;5116987;27;19919;-51
2022/12/04 10:31:26;;;;;;;;;;;;;;;2.61;76.93;101997.69;5111440;27;19919;-52
2022/12/04 10:34:02;;;;;;;;;;;;;;;2.58;77.19;101998.56;5106786;27;19915;-51
2022/12/04 10:36:30;;;;;;;;;;;;;;;2.62;77.22;102002.88;5108794;28;19924;-51
2022/12/04 10:38:57;;;;;;;;;;;;;;;2.64;77.16;101993.34;5097455;28;19912;-52
2022/12/04 10:41:25;;;;;;;;;;;;;;;2.64;77.27;101982.97;5110968;28;19927;-51
2022/12/04 10:43:51;;;;;;;;;;;;;;;2.64;77.39;101982.09;5116119;27;19943;-51
2022/12/04 10:46:27;;;;;;;;;;;;;;;2.64;77.43;101977.75;5108262;28;19974;-53
2022/12/04 10:48:56;;;;;;;;;;;;;;;2.63;77.44;101978.63;5102901;28;20370;-52
2022/12/04 10:51:23;;;;;;;;;;;;;;;2.71;77.18;101984.66;5107464;28;19924;-52
2022/12/04 10:53:50;;;;;;;;;;;;;;;2.71;77.15;101982.03;5109528;28;19988;-51
2022/12/04 10:56:18;;;;;;;;;;;;;;;2.77;77.20;101986.34;5100861;28;19923;-51
2022/12/04 10:59:01;;;;;;;;;;;;;;;2.77;76.89;101980.28;5119475;27;19911;-51
2022/12/04 11:01:30;;;;;;;;;;;;;;;2.80;77.03;101985.50;5110724;28;19972;-53
2022/12/04 11:04:05;;;;;;;;;;;;;;;2.82;77.23;101983.72;5095361;28;19916;-52
2022/12/04 11:06:30;;;;;;;;;;;;;;;2.79;76.98;101986.34;5111891;27;19919;-51
2022/12/04 11:08:57;;;;;;;;;;;;;;;2.84;76.97;101989.78;5108375;27;20022;-52
2022/12/04 11:11:25;;;;;;;;;;;;;;;2.86;77.00;101983.72;5109776;28;19927;-51
2022/12/04 11:13:59;;;;;;;;;;;;;;;2.86;77.17;101975.03;5108666;28;20010;-51
2022/12/04 11:16:33;;;;;;;;;;;;;;;2.88;76.92;101975.88;5101685;28;19920;-51
2022/12/04 11:18:59;;;;;;;;;;;;;;;2.90;76.96;101972.41;5099111;28;19966;-51
2022/12/04 11:21:29;;;;;;;;;;;;;;;2.87;77.12;101971.56;5105052;27;20417;-52
2022/12/04 11:23:55;;;;;;;;;;;;;;;2.91;76.88;101973.28;5122363;27;19919;-52
2022/12/04 11:26:29;;;;;;;;;;;;;;;2.92;76.93;101969.81;5108549;28;19919;-52
2022/12/04 11:28:57;;;;;;;;;;;;;;;2.92;76.95;101972.41;5109697;27;19919;-52
2022/12/04 11:31:23;;;;;;;;;;;;;;;2.92;76.98;101967.22;5112268;27;20370;-51
2022/12/04 11:33:51;;;;;;;;;;;;;;;2.89;77.22;101959.44;5108466;28;19963;-51
2022/12/04 11:36:16;;;;;;;;;;;;;;;2.93;77.08;101966.34;5107688;27;19928;-52
2022/12/04 11:38:41;;;;;;;;;;;;;;;2.88;77.06;101952.50;5102520;28;20434;-52
2022/12/04 11:41:21;;;;;;;;;;;;;;;2.90;77.07;101955.94;5111236;28;19919;-51
2022/12/04 11:43:49;;;;;;;;;;;;;;;2.83;77.34;101954.25;5099364;28;19916;-52
2022/12/04 11:46:18;;;;;;;;;;;;;;;2.79;77.51;101948.22;5103715;28;19919;-52
2022/12/04 11:48:44;;;;;;;;;;;;;;;2.81;77.57;101951.66;5108563;28;19919;-51
2022/12/04 11:51:10;;;;;;;;;;;;;;;2.81;77.68;101953.38;5106501;28;19920;-52
2022/12/04 11:53:41;;;;;;;;;;;;;;;2.87;77.57;101959.41;5106956;28;19919;-52
2022/12/04 11:56:13;;;;;;;;;;;;;;;2.86;77.58;101955.13;5110209;28;19960;-53
2022/12/04 11:58:44;;;;;;;;;;;;;;;2.82;77.72;101958.59;5111395;28;19934;-51
2022/12/04 12:01:28;;;;;;;;;;;;;;;2.79;77.82;101955.16;5100605;28;19972;-51
2022/12/04 12:04:12;;;;;;;;;;;;;;;2.79;77.89;101955.16;5104064;28;19915;-52
2022/12/04 12:06:56;;;;;;;;;;;;;;;2.74;77.90;101956.03;5107415;28;19958;-51
2022/12/04 12:09:24;;;;;;;;;;;;;;;2.82;77.94;101955.13;5092232;28;19919;-51
2022/12/04 12:12:05;;;;;;;;;;;;;;;2.84;77.84;101955.97;5113047;28;19918;-51
2022/12/04 12:14:40;;;;;;;;;;;;;;;2.82;77.85;101958.59;5109904;28;19918;-52
2022/12/04 12:17:11;;;;;;;;;;;;;;;2.86;77.78;101959.44;5106251;28;19920;-52
2022/12/04 12:19:55;;;;;;;;;;;;;;;2.81;77.94;101953.38;5113119;28;19944;-51
2022/12/04 12:22:26;;;;;;;;;;;;;;;2.82;78.03;101952.53;5107187;28;19926;-52
2022/12/04 12:25:00;;;;;;;;;;;;;;;2.81;78.08;101950.78;5109668;28;19931;-52
2022/12/04 12:27:26;;;;;;;;;;;;;;;2.82;78.14;101952.53;5101422;28;19912;-51
2022/12/04 12:30:01;;;;;;;;;;;;;;;2.83;77.96;101946.44;5110346;28;19965;-51
2022/12/04 12:32:26;;;;;;;;;;;;;;;2.87;77.93;101959.41;5096202;28;20387;-52
2022/12/04 12:34:51;;;;;;;;;;;;;;;2.89;77.86;101959.44;5106624;28;19959;-52
2022/12/04 12:37:16;;;;;;;;;;;;;;;2.88;77.93;101961.13;5107158;28;19977;-52
2022/12/04 12:40:01;;;;;;;;;;;;;;;2.88;78.02;101955.09;5108939;28;19934;-52
2022/12/04 12:42:34;;;;;;;;;;;;;;;2.85;78.06;101956.00;5093542;28;19923;-52
2022/12/04 12:45:15;;;;;;;;;;;;;;;2.86;78.09;101942.13;5114185;27;19972;-51
2022/12/04 12:47:42;;;;;;;;;;;;;;;2.80;78.32;101938.69;5112193;27;19911;-54